Time;durP1;ratioP1;P1;durP2;ratioP2;P2;SDS_P1;SDS_P2;PMS_P1;PMS_P2;Temp;Humidity;BMP_temperature;BMP_pressure;BME280_temperature;BME280_humidity;BME280_pressure;Samples;Min_cycle;Max_cycle;Signal;HPM_P1;HPM_P2
2021/12/08 00:01:19;;;;;;;12.18;2.50;;;4.60;99.90;;;;;;5028732;28;20109;-90
2021/12/08 00:03:45;;;;;;;7.65;2.15;;;4.60;99.90;;;;;;5025864;28;20026;-91
2021/12/08 00:06:11;;;;;;;6.55;1.90;;;4.60;99.90;;;;;;5029132;28;20045;-89
2021/12/08 00:08:37;;;;;;;12.27;2.53;;;4.60;99.90;;;;;;5028157;28;20025;-89
2021/12/08 00:13:56;;;;;;;6.93;1.77;;;4.60;99.90;;;;;;4998756;28;20069;-88
2021/12/08 00:16:22;;;;;;;11.07;2.05;;;4.60;99.90;;;;;;5010918;28;20062;-90
2021/12/08 00:18:48;;;;;;;7.60;1.77;;;4.60;99.90;;;;;;5009355;28;20521;-89
2021/12/08 00:21:16;;;;;;;6.05;1.10;;;4.60;99.90;;;;;;5013468;28;20026;-90
2021/12/08 00:23:42;;;;;;;7.57;2.28;;;4.60;99.90;;;;;;5028963;28;20017;-90
2021/12/08 00:26:08;;;;;;;7.63;1.33;;;4.60;99.90;;;;;;5008124;28;20045;-90
2021/12/08 00:28:34;;;;;;;8.68;2.00;;;4.70;99.90;;;;;;5028360;28;20010;-90
2021/12/08 00:31:03;;;;;;;8.73;1.90;;;4.60;99.90;;;;;;5029407;28;20030;-90
2021/12/08 00:33:30;;;;;;;6.47;1.80;;;4.60;99.90;;;;;;5009468;28;20033;-92
2021/12/08 00:35:58;;;;;;;4.32;1.73;;;4.60;99.90;;;;;;5027632;28;20034;-91
2021/12/08 00:38:24;;;;;;;6.15;1.60;;;4.70;99.90;;;;;;5030492;28;20030;-91
2021/12/08 00:40:51;;;;;;;4.85;1.42;;;4.70;99.90;;;;;;5012302;28;20168;-91
2021/12/08 00:43:18;;;;;;;7.13;1.55;;;4.70;99.90;;;;;;5011603;28;20022;-90
2021/12/08 00:45:44;;;;;;;6.78;2.00;;;4.70;99.90;;;;;;5012608;28;20025;-91
2021/12/08 00:48:10;;;;;;;10.18;1.65;;;4.70;99.90;;;;;;5028138;28;20034;-91
2021/12/08 00:50:38;;;;;;;5.32;1.70;;;4.80;99.90;;;;;;5013766;28;20029;-92
2021/12/08 00:53:05;;;;;;;5.30;1.10;;;4.80;99.90;;;;;;5028197;28;20532;-91
2021/12/08 00:55:31;;;;;;;7.28;1.90;;;4.80;99.90;;;;;;5012338;28;20026;-91
2021/12/08 00:57:56;;;;;;;6.40;1.80;;;4.80;99.90;;;;;;5011728;28;20033;-91
2021/12/08 01:00:44;;;;;;;3.90;1.15;;;4.80;99.90;;;;;;5011956;28;20025;-90
2021/12/08 01:03:10;;;;;;;5.35;1.80;;;4.80;99.90;;;;;;5011707;28;20057;-91
2021/12/08 01:05:49;;;;;;;5.88;1.42;;;4.90;99.90;;;;;;5008622;28;20052;-92
2021/12/08 01:08:15;;;;;;;5.70;1.63;;;4.90;99.90;;;;;;5010355;28;20034;-91
2021/12/08 01:10:43;;;;;;;5.13;1.70;;;4.90;99.90;;;;;;5027516;28;20017;-91
2021/12/08 01:13:12;;;;;;;5.65;2.58;;;4.90;99.90;;;;;;5012051;28;20080;-91
2021/12/08 01:15:42;;;;;;;8.27;2.00;;;5.00;99.90;;;;;;5013406;28;20113;-89
2021/12/08 01:18:08;;;;;;;7.05;2.40;;;5.00;99.90;;;;;;5013104;28;20077;-90
2021/12/08 01:20:34;;;;;;;6.10;1.85;;;5.10;99.90;;;;;;5016866;28;20109;-90
2021/12/08 01:23:00;;;;;;;7.20;3.03;;;5.10;99.90;;;;;;5017421;28;20037;-91
2021/12/08 01:25:25;;;;;;;6.50;2.40;;;5.20;99.90;;;;;;5006809;28;20026;-90
2021/12/08 01:27:51;;;;;;;5.20;2.13;;;5.20;99.90;;;;;;5030583;28;20046;-91
2021/12/08 01:30:16;;;;;;;4.72;1.98;;;5.20;99.90;;;;;;5032800;28;20076;-90
2021/12/08 01:32:42;;;;;;;6.75;2.28;;;5.30;99.90;;;;;;5032583;28;20091;-90
2021/12/08 01:35:09;;;;;;;7.40;2.22;;;5.30;99.90;;;;;;5031145;28;20047;-89
2021/12/08 01:54:54;;;;;;;4.85;1.70;;;5.30;99.90;;;;;;5016568;28;20087;-90
2021/12/08 01:57:19;;;;;;;5.63;1.70;;;5.40;99.90;;;;;;5013004;28;20053;-90
2021/12/08 01:59:45;;;;;;;4.93;2.25;;;5.30;99.90;;;;;;5014211;28;20446;-89
2021/12/08 02:02:10;;;;;;;6.05;1.92;;;5.40;99.90;;;;;;5014206;28;20029;-90
2021/12/08 02:04:36;;;;;;;5.05;1.65;;;5.40;99.90;;;;;;5008546;28;20026;-89
2021/12/08 02:07:02;;;;;;;5.15;2.05;;;5.40;99.90;;;;;;5015061;28;20068;-90
2021/12/08 02:09:28;;;;;;;6.68;1.70;;;5.40;99.90;;;;;;5029468;28;20022;-89
2021/12/08 02:11:56;;;;;;;4.57;2.13;;;5.40;99.90;;;;;;5012270;28;20068;-89
2021/12/08 02:14:22;;;;;;;4.93;1.83;;;5.40;99.90;;;;;;5006473;28;20027;-89
2021/12/08 02:16:51;;;;;;;4.00;2.25;;;5.40;99.90;;;;;;5013193;28;20037;-89
2021/12/08 02:19:17;;;;;;;4.63;1.90;;;5.40;99.90;;;;;;5004704;28;20104;-89
2021/12/08 02:21:43;;;;;;;8.10;2.42;;;5.40;99.90;;;;;;5014955;28;20049;-89
2021/12/08 02:24:13;;;;;;;7.10;2.15;;;5.40;99.90;;;;;;5012881;28;20116;-90
2021/12/08 02:26:41;;;;;;;5.68;2.35;;;5.40;99.90;;;;;;5007236;28;20030;-89
2021/12/08 02:29:11;;;;;;;8.65;2.30;;;5.40;99.90;;;;;;5007582;28;20033;-89
2021/12/08 02:47:54;;;;;;;3.47;1.35;;;5.60;99.90;;;;;;5013801;28;20121;-90
2021/12/08 02:50:30;;;;;;;9.57;1.42;;;5.60;99.90;;;;;;5012250;28;20040;-90
2021/12/08 02:52:58;;;;;;;4.40;0.90;;;5.60;99.90;;;;;;5015968;28;20053;-89
2021/12/08 02:55:25;;;;;;;3.67;1.02;;;5.60;99.90;;;;;;5029199;28;20493;-89
2021/12/08 02:57:51;;;;;;;5.30;0.90;;;5.70;99.90;;;;;;5014115;28;20111;-90
2021/12/08 03:00:23;;;;;;;5.22;1.10;;;5.70;99.90;;;;;;5008788;28;20053;-89
2021/12/08 03:02:50;;;;;;;;;;;5.80;99.90;;;;;;5014296;28;20030;-90
2021/12/08 03:05:15;;;;;;;4.32;0.82;;;5.80;99.90;;;;;;5013999;28;19924;-89
2021/12/08 03:07:41;;;;;;;3.97;0.98;;;5.80;99.90;;;;;;5030983;28;20041;-89
2021/12/08 03:10:10;;;;;;;6.60;0.95;;;5.90;99.90;;;;;;5028808;28;20033;-89
2021/12/08 03:12:36;;;;;;;6.30;0.95;;;6.00;99.90;;;;;;5013346;28;20025;-89
2021/12/08 03:15:03;;;;;;;5.28;0.80;;;6.10;99.90;;;;;;5014797;28;20053;-89
2021/12/08 03:17:28;;;;;;;4.95;0.90;;;6.10;99.90;;;;;;5015147;28;20030;-89
2021/12/08 03:19:54;;;;;;;6.18;0.93;;;6.20;99.90;;;;;;5029524;28;20046;-89
2021/12/08 03:22:20;;;;;;;12.05;1.67;;;6.30;99.90;;;;;;5029408;28;20056;-89
2021/12/08 03:24:53;;;;;;;8.75;1.00;;;6.30;99.90;;;;;;5012188;28;20068;-89
2021/12/08 03:27:25;;;;;;;5.47;1.60;;;6.40;99.90;;;;;;5027928;28;20034;-89
2021/12/08 03:30:01;;;;;;;16.42;3.42;;;6.40;99.90;;;;;;5012413;28;20851;-90
2021/12/08 03:32:38;;;;;;;3.05;0.70;;;6.50;99.90;;;;;;5013606;28;20033;-89
2021/12/08 03:35:15;;;;;;;5.55;1.10;;;6.50;99.90;;;;;;5012319;28;20399;-89
2021/12/08 03:37:46;;;;;;;4.13;0.70;;;6.60;99.90;;;;;;5006861;28;20121;-89
2021/12/08 03:40:21;;;;;;;7.65;0.90;;;6.60;99.90;;;;;;5028301;28;20018;-89
2021/12/08 03:42:49;;;;;;;8.60;0.88;;;6.60;99.90;;;;;;5028526;28;20030;-89
2021/12/08 03:45:30;;;;;;;5.38;0.60;;;6.60;99.90;;;;;;5010162;28;20033;-89
2021/12/08 03:48:02;;;;;;;3.58;0.70;;;6.70;99.90;;;;;;4999792;28;20039;-89
2021/12/08 03:50:30;;;;;;;2.63;0.77;;;6.70;99.90;;;;;;5006000;28;20022;-89
2021/12/08 03:52:55;;;;;;;4.95;0.80;;;6.70;99.90;;;;;;5016216;28;20409;-89
2021/12/08 03:55:21;;;;;;;7.70;0.90;;;6.70;99.90;;;;;;5012929;28;20026;-89
2021/12/08 03:57:47;;;;;;;6.85;0.60;;;6.70;99.90;;;;;;5011993;28;20057;-89
2021/12/08 04:00:16;;;;;;;4.80;0.82;;;6.70;99.90;;;;;;5012998;28;20037;-88
2021/12/08 04:02:42;;;;;;;7.00;0.80;;;6.70;99.90;;;;;;5028525;28;20116;-89
2021/12/08 04:05:09;;;;;;;5.22;0.95;;;6.70;99.90;;;;;;5028707;28;20115;-88
2021/12/08 04:07:42;;;;;;;7.82;1.02;;;6.70;99.90;;;;;;5011812;28;20041;-89
2021/12/08 04:10:15;;;;;;;7.50;0.70;;;6.70;99.90;;;;;;5012571;28;20030;-88
2021/12/08 04:12:41;;;;;;;7.65;0.98;;;6.70;99.90;;;;;;5028418;28;20093;-89
2021/12/08 04:15:07;;;;;;;5.22;0.88;;;6.70;99.90;;;;;;5026742;28;20168;-89
2021/12/08 04:17:38;;;;;;;7.65;1.17;;;6.70;99.90;;;;;;5011292;28;20117;-89
2021/12/08 04:20:10;;;;;;;8.00;0.80;;;6.80;99.90;;;;;;5004710;28;20046;-89
2021/12/08 04:22:39;;;;;;;3.70;0.50;;;6.80;99.90;;;;;;5012209;28;20033;-88
2021/12/08 04:25:10;;;;;;;5.70;1.13;;;6.70;99.90;;;;;;5007412;28;20657;-89
2021/12/08 04:27:38;;;;;;;6.97;0.90;;;6.70;99.90;;;;;;5026236;28;20029;-88
2021/12/08 04:30:12;;;;;;;4.85;0.50;;;6.70;99.90;;;;;;5009725;28;20077;-88
2021/12/08 04:32:38;;;;;;;8.40;0.57;;;6.60;99.90;;;;;;5010887;28;20029;-88
2021/12/08 04:35:09;;;;;;;4.75;0.70;;;6.50;99.90;;;;;;5012121;28;20080;-88
2021/12/08 04:37:39;;;;;;;4.30;0.75;;;6.40;99.90;;;;;;5019186;28;20081;-89
2021/12/08 04:40:22;;;;;;;4.63;0.68;;;6.30;99.90;;;;;;5028429;28;20072;-87
2021/12/08 04:43:44;;;;;;;2.03;0.32;;;6.30;99.90;;;;;;5010836;28;20061;-87
2021/12/08 04:46:07;;;;;;;7.07;0.83;;;6.10;99.90;;;;;;5007687;28;20044;-87
2021/12/08 04:53:59;;;;;;;4.13;0.50;;;5.90;99.90;;;;;;5013319;28;20112;-88
2021/12/08 05:10:16;;;;;;;5.88;0.82;;;5.70;99.90;;;;;;5011567;28;20559;-88
2021/12/08 05:12:45;;;;;;;4.93;0.65;;;5.60;99.90;;;;;;5011445;28;20108;-88
2021/12/08 05:15:29;;;;;;;6.60;0.45;;;5.60;99.90;;;;;;5012099;28;20025;-88
2021/12/08 05:18:07;;;;;;;5.43;0.45;;;5.60;99.90;;;;;;5007560;28;20057;-89
2021/12/08 05:20:47;;;;;;;5.18;0.40;;;5.60;99.90;;;;;;5005546;28;20038;-88
2021/12/08 05:23:27;;;;;;;5.20;0.60;;;5.60;99.90;;;;;;5026873;28;20029;-88
2021/12/08 05:25:53;;;;;;;5.15;0.40;;;5.50;99.90;;;;;;5010585;28;20053;-88
2021/12/08 05:28:22;;;;;;;4.07;0.60;;;5.60;99.90;;;;;;5009886;28;20033;-88
2021/12/08 05:30:56;;;;;;;12.55;0.70;;;5.50;99.90;;;;;;5010027;28;20120;-88
2021/12/08 05:33:23;;;;;;;7.50;0.70;;;5.50;99.90;;;;;;5009518;28;20053;-88
2021/12/08 05:35:49;;;;;;;7.60;0.80;;;5.50;99.90;;;;;;5011509;28;20049;-88
2021/12/08 05:38:17;;;;;;;4.05;0.43;;;5.50;99.90;;;;;;5010601;28;20113;-88
2021/12/08 05:40:49;;;;;;;8.20;0.90;;;5.40;99.90;;;;;;5026816;28;20060;-88
2021/12/08 05:43:16;;;;;;;6.13;0.55;;;5.40;99.90;;;;;;5025755;28;20492;-88
2021/12/08 05:45:44;;;;;;;5.55;0.70;;;5.40;99.90;;;;;;5010755;28;20425;-88
2021/12/08 05:48:10;;;;;;;6.35;0.60;;;5.30;99.90;;;;;;5006217;28;20045;-89
2021/12/08 05:50:46;;;;;;;7.28;0.60;;;5.30;99.90;;;;;;5010852;28;20022;-88
2021/12/08 05:53:12;;;;;;;6.57;0.50;;;5.20;99.90;;;;;;5022656;28;20033;-88
2021/12/08 05:55:39;;;;;;;6.55;0.50;;;5.20;99.90;;;;;;5009244;28;20025;-88
2021/12/08 05:58:06;;;;;;;3.47;0.50;;;5.10;99.90;;;;;;5011518;28;20034;-88
2021/12/08 06:00:39;;;;;;;4.32;0.40;;;5.10;99.90;;;;;;5011748;28;20068;-88
2021/12/08 06:03:04;;;;;;;5.95;0.82;;;5.10;99.90;;;;;;5013985;28;20478;-89
2021/12/08 06:05:32;;;;;;;4.55;0.45;;;5.00;99.90;;;;;;5013739;28;20537;-88
2021/12/08 06:07:57;;;;;;;5.80;0.70;;;5.00;99.90;;;;;;5014113;28;20125;-89
2021/12/08 06:10:31;;;;;;;5.30;0.70;;;5.00;99.90;;;;;;5011635;28;20121;-88
2021/12/08 06:12:58;;;;;;;4.68;0.47;;;5.00;99.90;;;;;;5003662;28;20046;-88
2021/12/08 06:15:23;;;;;;;6.45;0.57;;;5.00;99.90;;;;;;5012949;28;20030;-88
2021/12/08 06:17:49;;;;;;;4.68;0.40;;;5.10;99.90;;;;;;5019391;28;20034;-88
2021/12/08 06:20:16;;;;;;;6.68;0.90;;;5.00;99.90;;;;;;5017615;28;20050;-88
2021/12/08 06:22:44;;;;;;;7.53;0.68;;;5.00;99.90;;;;;;5017824;28;20084;-88
2021/12/08 06:25:12;;;;;;;5.05;0.50;;;5.00;99.90;;;;;;5014264;28;20184;-88
2021/12/08 06:27:38;;;;;;;5.30;0.47;;;4.90;99.90;;;;;;5016610;28;20038;-89
2021/12/08 06:30:08;;;;;;;4.90;0.40;;;5.00;99.90;;;;;;5035726;28;20036;-88
2021/12/08 06:32:34;;;;;;;3.55;0.50;;;4.90;99.90;;;;;;5014118;28;20030;-89
2021/12/08 06:35:01;;;;;;;6.75;0.55;;;4.90;99.90;;;;;;5017136;28;20116;-89
2021/12/08 06:37:34;;;;;;;5.53;0.50;;;5.00;99.90;;;;;;5017465;28;20057;-88
2021/12/08 06:40:11;;;;;;;4.63;0.47;;;5.00;99.90;;;;;;4996148;28;20033;-88
2021/12/08 06:42:40;;;;;;;8.25;0.75;;;5.00;99.90;;;;;;5032160;28;20056;-89
2021/12/08 06:45:07;;;;;;;5.70;0.70;;;5.00;99.90;;;;;;5023547;28;20037;-89
2021/12/08 06:47:34;;;;;;;10.05;1.05;;;5.00;99.90;;;;;;5004867;28;20049;-88
2021/12/08 06:50:05;;;;;;;5.28;0.63;;;5.00;99.90;;;;;;5015599;28;20026;-88
2021/12/08 06:52:33;;;;;;;8.27;0.73;;;5.00;99.90;;;;;;5013569;28;20030;-88
2021/12/08 06:55:13;;;;;;;6.80;0.47;;;5.00;99.90;;;;;;5015038;28;20026;-89
2021/12/08 06:57:47;;;;;;;8.57;0.50;;;5.00;99.90;;;;;;5008013;28;20113;-88
2021/12/08 07:00:23;;;;;;;4.60;0.50;;;5.00;99.90;;;;;;5011127;28;20032;-86
2021/12/08 07:06:03;;;;;;;10.00;0.82;;;5.00;99.90;;;;;;5006414;28;20026;-86
2021/12/08 07:08:20;;;;;;;6.82;0.35;;;5.00;99.90;;;;;;5011365;28;20042;-88
2021/12/08 07:10:49;;;;;;;7.07;0.40;;;4.90;99.90;;;;;;5012667;28;20010;-89
2021/12/08 07:13:22;;;;;;;6.82;0.57;;;4.90;99.90;;;;;;5012354;28;20026;-88
2021/12/08 07:15:58;;;;;;;10.38;0.85;;;4.90;99.90;;;;;;5024630;28;20577;-88
2021/12/08 07:18:54;;;;;;;3.78;0.45;;;4.90;99.90;;;;;;5014587;28;20094;-86
2021/12/08 07:21:24;;;;;;;5.40;0.80;;;4.90;99.90;;;;;;5014835;28;20080;-88
2021/12/08 07:23:55;;;;;;;10.07;0.55;;;4.90;99.90;;;;;;5017754;28;20097;-88
2021/12/08 07:26:26;;;;;;;8.38;0.55;;;4.90;99.90;;;;;;5025632;28;20034;-88
2021/12/08 07:28:54;;;;;;;7.75;0.47;;;4.90;99.90;;;;;;5013376;28;20112;-88
2021/12/08 07:31:34;;;;;;;3.25;0.40;;;4.80;99.90;;;;;;5006897;28;20088;-88
2021/12/08 07:34:05;;;;;;;7.78;0.65;;;4.80;99.90;;;;;;5009593;28;20034;-87
2021/12/08 07:36:34;;;;;;;8.90;0.68;;;4.70;99.90;;;;;;5010910;28;20033;-88
2021/12/08 07:39:00;;;;;;;8.82;0.40;;;4.70;99.90;;;;;;5009983;28;20022;-88
2021/12/08 07:41:31;;;;;;;8.68;0.60;;;4.70;99.90;;;;;;5011822;28;20032;-88
2021/12/08 07:44:02;;;;;;;7.25;0.50;;;4.70;99.90;;;;;;5013953;28;20025;-89
2021/12/08 07:46:46;;;;;;;6.10;0.60;;;4.60;99.90;;;;;;5010096;28;20049;-88
2021/12/08 07:49:24;;;;;;;4.97;1.30;;;4.60;99.90;;;;;;5023992;28;20044;-89
2021/12/08 07:52:18;;;;;;;4.32;0.60;;;4.60;99.90;;;;;;5014771;28;20038;-88
2021/12/08 07:54:44;;;;;;;6.97;0.80;;;4.70;99.90;;;;;;5027953;28;20034;-88
2021/12/08 07:57:15;;;;;;;4.85;0.60;;;4.70;99.90;;;;;;5012867;28;20029;-88
2021/12/08 07:59:43;;;;;;;13.60;1.27;;;4.70;99.90;;;;;;5012626;28;20033;-89
2021/12/08 08:02:10;;;;;;;7.15;0.68;;;4.70;99.90;;;;;;5013147;28;20085;-89
2021/12/08 08:04:40;;;;;;;8.90;0.80;;;4.70;99.90;;;;;;5009388;28;20029;-89
2021/12/08 08:07:08;;;;;;;5.43;0.43;;;4.70;99.90;;;;;;4999673;28;20034;-89
2021/12/08 08:09:40;;;;;;;14.25;0.60;;;4.70;99.90;;;;;;5011026;28;20022;-90
2021/12/08 08:12:09;;;;;;;6.70;0.50;;;4.70;99.90;;;;;;5004520;28;20040;-89
2021/12/08 08:14:42;;;;;;;8.18;1.20;;;4.80;99.90;;;;;;5006649;28;20049;-90
2021/12/08 08:17:13;;;;;;;5.43;0.65;;;4.80;99.90;;;;;;5005873;28;20084;-89
2021/12/08 08:19:44;;;;;;;7.80;0.57;;;4.70;99.90;;;;;;5010609;28;20041;-88
2021/12/08 08:22:14;;;;;;;4.97;0.60;;;4.70;99.90;;;;;;5025030;28;20033;-88
2021/12/08 08:24:40;;;;;;;9.73;0.90;;;4.70;99.90;;;;;;5023997;28;20022;-88
2021/12/08 08:27:09;;;;;;;8.48;1.20;;;4.60;99.90;;;;;;5010243;28;20038;-88
2021/12/08 08:29:35;;;;;;;14.38;1.10;;;4.60;99.90;;;;;;5013958;28;20400;-88
2021/12/08 08:32:11;;;;;;;12.68;0.80;;;4.60;99.90;;;;;;5027561;28;20108;-88
2021/12/08 08:34:41;;;;;;;7.68;0.50;;;4.70;99.90;;;;;;5005128;28;20018;-89
2021/12/08 08:37:10;;;;;;;5.38;0.70;;;4.70;99.90;;;;;;5004604;28;20027;-87
2021/12/08 08:39:40;;;;;;;6.10;0.60;;;4.80;99.90;;;;;;5001675;28;20033;-88
2021/12/08 08:42:12;;;;;;;8.18;1.15;;;4.90;99.90;;;;;;5005071;28;20026;-88
2021/12/08 08:44:44;;;;;;;;;;;4.90;99.90;;;;;;5003128;28;20033;-89
2021/12/08 08:47:18;;;;;;;8.70;0.50;;;5.00;99.90;;;;;;5007687;28;19925;-88
2021/12/08 08:49:44;;;;;;;6.68;0.63;;;4.90;99.90;;;;;;5003096;28;20022;-88
2021/12/08 08:52:21;;;;;;;5.30;0.50;;;4.90;99.90;;;;;;5023722;28;20038;-88
2021/12/08 08:54:49;;;;;;;9.20;0.70;;;4.90;99.90;;;;;;5002655;28;20042;-89
2021/12/08 08:57:21;;;;;;;9.63;1.60;;;4.90;99.90;;;;;;5030199;28;20490;-89
2021/12/08 09:00:07;;;;;;;4.45;0.60;;;4.90;99.90;;;;;;5028525;28;20034;-89
2021/12/08 09:02:38;;;;;;;4.15;0.63;;;4.90;99.90;;;;;;5028173;28;20025;-88
2021/12/08 09:05:17;;;;;;;5.72;0.63;;;5.00;99.90;;;;;;5027015;28;20125;-89
2021/12/08 09:07:47;;;;;;;8.38;0.60;;;5.10;99.90;;;;;;5019616;28;20042;-88
2021/12/08 09:10:19;;;;;;;9.52;0.60;;;5.20;99.90;;;;;;5004207;28;20022;-90
2021/12/08 09:12:54;;;;;;;9.43;0.55;;;5.20;99.90;;;;;;5028913;28;20034;-89
2021/12/08 09:15:32;;;;;;;7.05;1.05;;;5.20;99.90;;;;;;5012569;28;20490;-88
2021/12/08 09:18:06;;;;;;;6.20;0.50;;;5.30;99.90;;;;;;4996302;28;20486;-89
2021/12/08 09:20:41;;;;;;;6.20;1.13;;;5.30;99.90;;;;;;5012348;28;20062;-90
2021/12/08 09:23:22;;;;;;;13.25;0.70;;;5.30;99.90;;;;;;5013844;28;20029;-89
2021/12/08 09:25:58;;;;;;;4.07;0.80;;;5.40;99.90;;;;;;5029160;28;20037;-89
2021/12/08 09:28:30;;;;;;;5.78;0.93;;;5.40;99.90;;;;;;5025231;28;20054;-90
2021/12/08 09:31:03;;;;;;;12.90;1.15;;;5.50;99.90;;;;;;5010258;28;20038;-88
2021/12/08 09:33:39;;;;;;;6.20;0.60;;;5.50;99.90;;;;;;5009596;28;20026;-89
2021/12/08 09:36:09;;;;;;;5.22;0.57;;;5.50;99.90;;;;;;5009909;28;20460;-88
2021/12/08 09:38:57;;;;;;;5.90;0.55;;;5.50;99.90;;;;;;5002018;28;20091;-90
2021/12/08 09:41:28;;;;;;;5.07;0.60;;;5.60;99.90;;;;;;5017209;28;20041;-89
2021/12/08 09:44:09;;;;;;;4.95;0.68;;;5.60;99.90;;;;;;5016071;28;20034;-90
2021/12/08 09:46:42;;;;;;;3.20;0.47;;;5.70;99.90;;;;;;5011023;28;20108;-89
2021/12/08 09:49:09;;;;;;;12.73;1.58;;;5.80;99.90;;;;;;5026051;28;20022;-89
2021/12/08 09:51:36;;;;;;;10.10;1.00;;;5.90;99.90;;;;;;5025162;28;20033;-88
2021/12/08 09:54:02;;;;;;;5.72;0.80;;;6.00;99.90;;;;;;5014766;28;20062;-90
2021/12/08 09:56:29;;;;;;;6.40;0.60;;;6.00;99.90;;;;;;5013561;28;20061;-89
2021/12/08 09:58:55;;;;;;;6.40;0.50;;;6.10;99.90;;;;;;5013792;28;20022;-87
2021/12/08 10:01:23;;;;;;;6.00;0.70;;;6.10;99.90;;;;;;5015327;28;20041;-89
2021/12/08 10:03:51;;;;;;;5.32;0.50;;;6.10;99.90;;;;;;5015320;28;20032;-89
2021/12/08 10:06:18;;;;;;;6.07;0.70;;;6.10;99.90;;;;;;5031282;28;20490;-88
2021/12/08 10:08:46;;;;;;;7.57;0.57;;;6.10;99.90;;;;;;5012444;28;20034;-89
2021/12/08 10:11:12;;;;;;;8.65;0.70;;;6.10;99.90;;;;;;5015037;28;20382;-88
2021/12/08 10:13:39;;;;;;;5.70;0.60;;;6.30;99.90;;;;;;5014976;28;20033;-88
2021/12/08 10:16:06;;;;;;;5.68;0.60;;;6.30;99.90;;;;;;5012524;28;20377;-88
2021/12/08 10:18:31;;;;;;;4.47;0.50;;;6.30;99.90;;;;;;5031657;28;20053;-88
2021/12/08 10:20:57;;;;;;;3.97;0.50;;;6.30;99.90;;;;;;5001628;28;20031;-88
2021/12/08 10:23:23;;;;;;;5.65;0.47;;;6.30;99.90;;;;;;5028752;28;20410;-88
2021/12/08 10:25:54;;;;;;;4.93;0.45;;;6.40;99.90;;;;;;5014519;28;20121;-88
2021/12/08 10:28:32;;;;;;;3.80;0.30;;;6.40;99.90;;;;;;5012376;28;20038;-87
2021/12/08 10:31:04;;;;;;;4.68;0.40;;;6.40;99.90;;;;;;5012887;28;20112;-89
2021/12/08 10:36:34;;;;;;;4.10;0.38;;;6.40;99.90;;;;;;5015113;28;20056;-88
2021/12/08 10:39:28;;;;;;;2.97;0.32;;;6.40;99.90;;;;;;5029047;28;20396;-89
2021/12/08 10:42:08;;;;;;;8.25;0.40;;;6.50;99.90;;;;;;5014639;28;20037;-87
2021/12/08 10:44:48;;;;;;;9.05;0.45;;;6.50;99.90;;;;;;5015740;28;20029;-88
2021/12/08 10:47:44;;;;;;;7.97;0.40;;;6.50;99.90;;;;;;5015056;28;20452;-88
2021/12/08 10:55:55;;;;;;;6.15;0.60;;;6.50;99.90;;;;;;5011929;28;20045;-88
2021/12/08 10:58:31;;;;;;;4.65;0.60;;;6.50;99.90;;;;;;5027441;28;20076;-88
2021/12/08 11:01:06;;;;;;;5.55;0.40;;;6.50;99.90;;;;;;5026741;28;20021;-87
2021/12/08 11:03:31;;;;;;;7.22;0.50;;;6.50;99.90;;;;;;5013914;28;20026;-87
2021/12/08 11:06:01;;;;;;;6.78;0.60;;;6.50;99.90;;;;;;5015609;28;20425;-88
2021/12/08 11:08:39;;;;;;;2.50;0.47;;;6.50;99.90;;;;;;5015411;28;20033;-87
2021/12/08 11:11:12;;;;;;;3.47;0.30;;;6.50;99.90;;;;;;5017503;28;20456;-87
2021/12/08 11:13:47;;;;;;;2.60;0.40;;;6.40;99.90;;;;;;5030649;28;20034;-89
2021/12/08 11:16:24;;;;;;;10.63;1.02;;;6.40;99.90;;;;;;5009710;28;20022;-89
2021/12/08 11:19:03;;;;;;;3.22;0.50;;;6.30;99.90;;;;;;5013084;28;20545;-89
2021/12/08 11:21:36;;;;;;;8.88;0.60;;;6.30;99.90;;;;;;5028475;28;20487;-89
2021/12/08 11:24:10;;;;;;;7.32;0.50;;;6.30;99.90;;;;;;5016587;28;20494;-88
2021/12/08 11:26:41;;;;;;;5.88;0.43;;;6.30;99.90;;;;;;5014982;28;20408;-89
2021/12/08 11:29:06;;;;;;;7.53;0.57;;;6.40;99.90;;;;;;5015607;28;20558;-89
2021/12/08 11:31:41;;;;;;;7.38;0.45;;;6.40;99.90;;;;;;5015626;28;20096;-89
2021/12/08 11:34:15;;;;;;;4.78;0.50;;;6.50;99.90;;;;;;5013408;28;20485;-88
2021/12/08 11:36:41;;;;;;;5.18;0.50;;;6.50;99.90;;;;;;5015392;28;20363;-89
2021/12/08 11:39:19;;;;;;;8.40;0.90;;;6.60;99.90;;;;;;5007249;28;20036;-88
2021/12/08 11:41:55;;;;;;;11.45;0.85;;;6.60;99.90;;;;;;5015902;28;20022;-89
2021/12/08 11:44:29;;;;;;;3.08;0.47;;;6.70;99.90;;;;;;5014937;28;20397;-89
2021/12/08 11:47:02;;;;;;;11.55;2.58;;;6.80;99.90;;;;;;5020334;28;20109;-86
2021/12/08 11:49:27;;;;;;;6.82;0.60;;;6.80;99.90;;;;;;5004694;28;20030;-88
2021/12/08 11:52:19;;;;;;;5.70;0.70;;;6.80;99.90;;;;;;5009888;28;20065;-88
2021/12/08 11:54:52;;;;;;;4.07;0.57;;;6.90;99.90;;;;;;5004754;28;20461;-88
2021/12/08 11:57:28;;;;;;;4.90;0.55;;;6.90;99.90;;;;;;5007064;28;20026;-89
2021/12/08 12:00:15;;;;;;;5.55;0.93;;;6.90;99.90;;;;;;5004211;28;20081;-89
2021/12/08 12:02:56;;;;;;;5.95;0.70;;;6.90;99.90;;;;;;5007931;28;20040;-90
2021/12/08 12:05:33;;;;;;;9.00;0.85;;;6.80;99.90;;;;;;5010160;28;20482;-89
2021/12/08 12:08:01;;;;;;;6.20;1.00;;;6.80;99.90;;;;;;5009480;28;20037;-89
2021/12/08 12:10:33;;;;;;;5.28;1.70;;;6.80;99.90;;;;;;5004860;28;20425;-89
2021/12/08 12:13:03;;;;;;;4.45;0.47;;;6.80;99.90;;;;;;5022184;28;20025;-89
2021/12/08 12:15:29;;;;;;;5.75;0.70;;;6.80;99.90;;;;;;5024938;28;20026;-89
2021/12/08 12:17:55;;;;;;;7.15;0.57;;;6.80;99.90;;;;;;5005584;28;20042;-90
2021/12/08 12:20:40;;;;;;;6.65;0.80;;;6.90;99.90;;;;;;5005034;28;20053;-89
2021/12/08 12:23:42;;;;;;;6.80;0.70;;;6.90;99.90;;;;;;5005093;28;20057;-88
2021/12/08 12:26:22;;;;;;;4.75;0.93;;;6.90;99.90;;;;;;5005517;28;20029;-88
2021/12/08 12:29:09;;;;;;;3.03;0.70;;;6.80;99.90;;;;;;5004844;28;20038;-88
2021/12/08 12:32:09;;;;;;;3.13;0.40;;;6.90;99.90;;;;;;5000464;28;20049;-90
2021/12/08 12:34:39;;;;;;;3.25;0.43;;;6.90;99.90;;;;;;5013931;28;20105;-89
2021/12/08 12:37:33;;;;;;;3.90;0.82;;;6.90;99.90;;;;;;5001671;28;20030;-88
2021/12/08 12:40:01;;;;;;;5.80;0.70;;;6.90;99.90;;;;;;5002798;28;20026;-89
2021/12/08 12:42:40;;;;;;;5.10;0.60;;;6.90;99.90;;;;;;5019536;28;20096;-89
2021/12/08 12:45:12;;;;;;;4.20;0.73;;;6.90;99.90;;;;;;5006717;28;20133;-88
2021/12/08 12:47:38;;;;;;;3.75;0.40;;;6.90;99.90;;;;;;5003810;28;20394;-89
2021/12/08 12:50:03;;;;;;;4.55;0.60;;;6.90;99.90;;;;;;5003308;28;20153;-89
2021/12/08 12:52:41;;;;;;;7.65;0.60;;;6.90;99.90;;;;;;5004881;28;20041;-88
2021/12/08 12:55:41;;;;;;;7.35;0.90;;;6.90;99.90;;;;;;5006842;28;20022;-89
2021/12/08 12:58:09;;;;;;;5.15;0.75;;;6.90;99.90;;;;;;5005161;28;20302;-88
2021/12/08 13:00:49;;;;;;;6.57;0.82;;;6.90;99.90;;;;;;5023805;28;20532;-89
2021/12/08 13:03:42;;;;;;;2.75;0.55;;;6.90;99.90;;;;;;5009831;28;20088;-91
2021/12/08 13:06:10;;;;;;;4.22;0.80;;;6.90;99.90;;;;;;5007868;28;20041;-90
2021/12/08 13:08:39;;;;;;;7.10;0.82;;;6.90;99.90;;;;;;5006583;28;20513;-90
2021/12/08 13:11:30;;;;;;;5.15;0.65;;;6.90;99.90;;;;;;5024031;28;20044;-90
2021/12/08 13:13:56;;;;;;;4.20;0.55;;;6.90;99.90;;;;;;5001882;28;20039;-91
2021/12/08 13:16:27;;;;;;;4.30;0.70;;;6.90;99.90;;;;;;5007808;28;20061;-91
2021/12/08 13:19:01;;;;;;;7.90;0.73;;;6.90;99.90;;;;;;5003321;28;20139;-89
2021/12/08 13:21:44;;;;;;;3.90;0.70;;;6.90;99.90;;;;;;5003931;28;20049;-89
2021/12/08 13:24:31;;;;;;;3.88;0.68;;;7.00;99.90;;;;;;5025696;28;20041;-90
2021/12/08 13:27:06;;;;;;;3.28;0.63;;;7.00;99.90;;;;;;5010061;28;20054;-90
2021/12/08 13:29:35;;;;;;;4.32;1.05;;;7.00;99.90;;;;;;5019367;28;20026;-91
2021/12/08 13:32:15;;;;;;;6.82;0.80;;;7.00;99.90;;;;;;5008907;28;20029;-90
2021/12/08 13:34:54;;;;;;;3.13;0.70;;;7.10;99.90;;;;;;5009194;28;20022;-89
2021/12/08 13:37:23;;;;;;;4.20;0.73;;;7.10;99.90;;;;;;5004855;28;20026;-89
2021/12/08 13:39:51;;;;;;;2.58;0.50;;;7.20;99.90;;;;;;5024401;28;20034;-89
2021/12/08 13:42:29;;;;;;;9.65;0.60;;;7.20;99.90;;;;;;5000666;28;20025;-89
2021/12/08 13:45:01;;;;;;;4.45;0.70;;;7.20;99.90;;;;;;5016345;28;20044;-89
2021/12/08 13:47:34;;;;;;;7.75;1.05;;;7.20;99.90;;;;;;5002348;28;20289;-89
2021/12/08 13:50:02;;;;;;;;;;;7.20;99.90;;;;;;5003513;28;20049;-89
2021/12/08 13:52:30;;;;;;;5.78;0.75;;;7.10;99.90;;;;;;4999715;28;19910;-89
2021/12/08 13:55:14;;;;;;;5.55;0.50;;;7.10;99.90;;;;;;5000852;28;20034;-89
2021/12/08 13:57:46;;;;;;;5.10;0.50;;;7.00;99.90;;;;;;4993796;28;20029;-88
2021/12/08 14:00:17;;;;;;;3.70;0.82;;;6.90;99.90;;;;;;5003575;28;20049;-89
2021/12/08 14:02:48;;;;;;;2.67;0.50;;;6.80;99.90;;;;;;5000989;28;20423;-90
2021/12/08 14:05:23;;;;;;;5.18;0.60;;;6.60;99.90;;;;;;5001859;28;20026;-88
2021/12/08 14:07:54;;;;;;;4.85;1.02;;;6.50;99.90;;;;;;5014472;28;20410;-90
2021/12/08 14:10:24;;;;;;;6.45;0.70;;;6.50;99.90;;;;;;4999890;28;20450;-88
2021/12/08 14:12:52;;;;;;;5.57;0.85;;;6.40;99.90;;;;;;5017262;28;20045;-89
2021/12/08 14:15:20;;;;;;;6.95;0.60;;;6.30;99.90;;;;;;4999866;28;20111;-90
2021/12/08 14:17:48;;;;;;;7.78;0.88;;;6.30;99.90;;;;;;5000334;28;20035;-89
2021/12/08 14:20:34;;;;;;;4.40;0.40;;;6.30;99.90;;;;;;5000171;28;20058;-89
2021/12/08 14:23:02;;;;;;;4.88;0.73;;;6.30;99.90;;;;;;4999541;28;20378;-90
2021/12/08 14:25:39;;;;;;;6.10;0.80;;;6.20;99.90;;;;;;5003622;28;20041;-89
2021/12/08 14:28:50;;;;;;;4.75;0.88;;;6.20;99.90;;;;;;5008277;28;20397;-90